createdAt,value
2022-12-28T00:00:17.001Z,3.30
2022-12-28T00:02:46.415Z,2.92
2022-12-28T00:05:14.808Z,2.50
2022-12-28T00:07:45.284Z,3.80
2022-12-28T00:10:14.726Z,2.70
2022-12-28T00:12:43.658Z,2.42
2022-12-28T00:15:12.645Z,2.30
2022-12-28T00:17:41.139Z,1.92
2022-12-28T00:20:10.567Z,1.83
2022-12-28T00:22:39.119Z,1.50
2022-12-28T00:25:10.607Z,2.00
2022-12-28T00:27:38.993Z,2.40
2022-12-28T00:30:09.010Z,2.28
2022-12-28T00:32:37.962Z,2.42
2022-12-28T00:35:07.319Z,2.67
2022-12-28T00:37:36.010Z,1.80
2022-12-28T00:40:04.830Z,2.58
2022-12-28T00:42:35.259Z,2.20
2022-12-28T00:45:03.691Z,2.30
2022-12-28T00:47:32.202Z,4.90
2022-12-28T00:50:01.316Z,2.10
2022-12-28T00:52:29.671Z,2.30
2022-12-28T00:54:58.029Z,2.00
2022-12-28T00:57:26.938Z,2.40
2022-12-28T00:59:56.746Z,2.40
2022-12-28T01:02:25.162Z,1.95
2022-12-28T01:04:53.898Z,2.53
2022-12-28T01:07:22.619Z,1.60
2022-12-28T01:09:51.250Z,1.88
2022-12-28T01:12:19.669Z,2.10
2022-12-28T01:14:48.243Z,2.63
2022-12-28T01:17:19.153Z,2.83
2022-12-28T01:19:53.798Z,2.38
2022-12-28T01:22:22.641Z,2.75
2022-12-28T01:24:51.367Z,1.70
2022-12-28T01:27:19.922Z,2.35
2022-12-28T01:29:48.771Z,1.77
2022-12-28T01:32:19.000Z,2.05
2022-12-28T01:34:47.543Z,1.77
2022-12-28T01:37:16.511Z,1.98
2022-12-28T01:39:45.165Z,2.70
2022-12-28T01:42:18.141Z,2.55
2022-12-28T01:44:49.688Z,1.85
2022-12-28T01:47:23.226Z,1.75
2022-12-28T01:49:58.945Z,1.63
2022-12-28T01:52:34.983Z,1.13
2022-12-28T01:55:09.543Z,1.95
2022-12-28T01:57:44.386Z,2.25
2022-12-28T02:00:16.205Z,1.92
2022-12-28T02:02:52.739Z,2.20
2022-12-28T02:05:24.214Z,1.67
2022-12-28T02:07:59.437Z,1.88
2022-12-28T02:10:44.328Z,1.67
2022-12-28T02:13:15.990Z,1.70
2022-12-28T02:15:45.246Z,2.83
2022-12-28T02:18:17.598Z,1.33
2022-12-28T02:21:09.707Z,1.55
2022-12-28T02:23:48.666Z,1.83
2022-12-28T02:26:45.020Z,1.52
2022-12-28T02:29:45.000Z,1.65
2022-12-28T02:32:27.243Z,1.35
2022-12-28T02:35:03.749Z,2.88
2022-12-28T02:37:37.898Z,1.67
2022-12-28T02:40:13.712Z,2.05
2022-12-28T02:42:44.999Z,1.67
2022-12-28T02:48:59.724Z,2.10
2022-12-28T02:51:51.843Z,2.38
2022-12-28T02:55:05.922Z,2.70
2022-12-28T02:57:50.406Z,3.75
2022-12-28T03:00:21.169Z,2.85
2022-12-28T03:03:01.172Z,4.63
2022-12-28T03:05:55.496Z,3.22
2022-12-28T03:08:35.307Z,2.13
2022-12-28T03:11:08.797Z,3.50
2022-12-28T03:13:47.195Z,2.78
2022-12-28T03:16:21.266Z,3.08
2022-12-28T03:19:12.880Z,2.50
2022-12-28T03:22:01.565Z,3.88
2022-12-28T03:24:49.178Z,3.47
2022-12-28T03:27:37.368Z,4.40
2022-12-28T03:30:27.046Z,3.35
2022-12-28T03:32:56.627Z,2.80
2022-12-28T03:35:30.751Z,2.22
2022-12-28T03:38:03.377Z,4.25
2022-12-28T03:40:39.527Z,2.67
2022-12-28T03:43:29.755Z,2.80
2022-12-28T03:46:01.482Z,3.75
2022-12-28T03:50:58.371Z,3.07
2022-12-28T03:53:37.838Z,2.78
2022-12-28T03:56:10.588Z,3.28
2022-12-28T03:58:39.485Z,2.93
2022-12-28T04:01:08.715Z,3.47
2022-12-28T04:03:37.629Z,3.38
2022-12-28T04:06:06.865Z,3.00
2022-12-28T04:08:36.883Z,3.85
2022-12-28T04:11:06.080Z,2.37
2022-12-28T04:13:34.856Z,2.40
2022-12-28T04:16:05.137Z,3.35
2022-12-28T04:18:35.696Z,3.23
2022-12-28T04:21:04.576Z,2.40
2022-12-28T04:23:33.872Z,1.77
2022-12-28T04:26:05.880Z,2.67
2022-12-28T04:28:35.729Z,2.90
2022-12-28T04:31:06.856Z,2.33
2022-12-28T04:33:36.241Z,1.30
2022-12-28T04:36:08.698Z,2.05
2022-12-28T04:38:38.760Z,2.10
2022-12-28T04:41:10.545Z,2.53
2022-12-28T04:43:40.586Z,1.70
2022-12-28T04:46:13.106Z,2.27
2022-12-28T04:48:42.359Z,1.73
2022-12-28T04:51:12.410Z,2.70
2022-12-28T04:53:41.415Z,1.47
2022-12-28T04:56:12.750Z,2.47
2022-12-28T04:58:41.970Z,2.10
2022-12-28T05:01:12.132Z,1.83
2022-12-28T05:03:41.996Z,1.77
2022-12-28T05:06:14.981Z,2.50
2022-12-28T05:08:43.480Z,1.37
2022-12-28T05:11:18.009Z,0.60
2022-12-28T05:13:47.206Z,1.63
2022-12-28T05:16:19.403Z,1.50
2022-12-28T05:18:48.473Z,1.23
2022-12-28T05:21:19.409Z,1.47
2022-12-28T05:23:49.158Z,1.20
2022-12-28T05:26:21.219Z,1.00
2022-12-28T05:28:50.290Z,0.63
2022-12-28T05:31:20.561Z,0.95
2022-12-28T05:33:49.962Z,1.33
2022-12-28T05:36:20.571Z,1.45
2022-12-28T05:38:51.322Z,0.90
2022-12-28T05:41:23.277Z,3.50
2022-12-28T05:43:51.724Z,1.10
2022-12-28T05:46:22.309Z,2.72
2022-12-28T05:48:51.052Z,2.20
2022-12-28T05:51:21.199Z,1.30
2022-12-28T05:53:49.765Z,1.13
2022-12-28T05:56:20.927Z,2.30
2022-12-28T05:58:54.409Z,1.50
2022-12-28T06:01:24.665Z,1.37
2022-12-28T06:03:55.704Z,1.57
2022-12-28T06:06:25.746Z,1.27
2022-12-28T06:08:55.263Z,1.20
2022-12-28T06:11:27.172Z,1.37
2022-12-28T06:13:55.879Z,0.87
2022-12-28T06:16:26.415Z,2.80
2022-12-28T06:18:57.958Z,1.77
2022-12-28T06:21:27.989Z,1.17
2022-12-28T06:23:58.302Z,1.27
2022-12-28T06:26:29.854Z,1.07
2022-12-28T06:28:59.120Z,2.35
2022-12-28T06:31:29.536Z,1.90
2022-12-28T06:34:01.122Z,2.23
2022-12-28T06:36:31.915Z,1.30
2022-12-28T06:39:02.030Z,2.25
2022-12-28T06:41:33.439Z,1.67
2022-12-28T06:44:02.046Z,2.72
2022-12-28T06:46:31.466Z,1.97
2022-12-28T06:49:00.224Z,1.40
2022-12-28T06:51:30.676Z,2.20
2022-12-28T06:53:59.880Z,1.20
2022-12-28T06:56:31.644Z,3.03
2022-12-28T07:01:34.778Z,2.67
2022-12-28T07:04:04.456Z,2.28
2022-12-28T07:06:37.297Z,1.20
2022-12-28T07:09:08.058Z,3.97
2022-12-28T07:11:37.064Z,2.60
2022-12-28T07:14:07.554Z,3.30
2022-12-28T07:19:03.697Z,5.10
2022-12-28T07:21:33.604Z,5.93
2022-12-28T07:24:02.228Z,7.40
2022-12-28T07:26:32.703Z,5.17
2022-12-28T07:29:02.897Z,5.43
2022-12-28T07:31:38.384Z,2.50
2022-12-28T07:34:13.389Z,2.70
2022-12-28T07:36:42.224Z,3.30
2022-12-28T07:39:10.671Z,4.05
2022-12-28T07:41:39.227Z,1.98
2022-12-28T07:44:07.889Z,1.80
2022-12-28T07:46:38.843Z,2.43
2022-12-28T07:49:07.849Z,2.63
2022-12-28T07:51:37.737Z,1.25
2022-12-28T07:54:06.270Z,2.47
2022-12-28T07:59:04.392Z,3.35
2022-12-28T08:01:34.578Z,1.60
2022-12-28T08:04:06.508Z,3.50
2022-12-28T08:06:36.960Z,3.05
2022-12-28T08:09:06.529Z,3.28
2022-12-28T08:11:36.653Z,5.43
2022-12-28T08:14:06.280Z,3.50
2022-12-28T08:16:37.310Z,3.45
2022-12-28T08:19:08.102Z,2.50
2022-12-28T08:21:38.456Z,3.65
2022-12-28T08:24:08.193Z,3.58
2022-12-28T08:26:39.322Z,1.70
2022-12-28T08:29:10.457Z,2.47
2022-12-28T08:31:40.514Z,2.00
2022-12-28T08:34:12.241Z,4.07
2022-12-28T08:39:08.737Z,2.38
2022-12-28T08:41:37.325Z,2.10
2022-12-28T08:44:05.921Z,3.17
2022-12-28T08:46:36.580Z,1.88
2022-12-28T08:49:06.747Z,3.33
2022-12-28T08:51:39.837Z,2.55
2022-12-28T08:54:09.011Z,4.13
2022-12-28T08:56:39.432Z,2.92
2022-12-28T08:59:08.221Z,2.92
2022-12-28T09:01:43.697Z,2.00
2022-12-28T09:04:16.601Z,1.92
2022-12-28T09:06:46.896Z,2.63
2022-12-28T09:09:17.842Z,1.88
2022-12-28T09:11:46.805Z,1.67
2022-12-28T09:14:22.754Z,2.58
2022-12-28T09:16:52.857Z,2.40
2022-12-28T09:19:21.803Z,1.45
2022-12-28T09:21:53.635Z,2.85
2022-12-28T09:24:22.806Z,2.20
2022-12-28T09:26:53.233Z,1.88
2022-12-28T09:29:21.820Z,1.65
2022-12-28T09:31:50.172Z,2.70
2022-12-28T09:34:37.297Z,3.90
2022-12-28T09:37:08.706Z,2.63
2022-12-28T09:39:37.333Z,3.10
2022-12-28T09:42:10.413Z,2.40
2022-12-28T09:45:00.639Z,2.55
2022-12-28T09:47:38.255Z,1.98
2022-12-28T09:50:30.138Z,2.30
2022-12-28T09:55:44.956Z,3.80
2022-12-28T09:58:16.589Z,4.93
2022-12-28T10:00:48.099Z,2.78
2022-12-28T10:03:19.649Z,2.58
2022-12-28T10:08:21.621Z,3.80
2022-12-28T10:10:51.562Z,3.53
2022-12-28T10:13:45.895Z,3.20
2022-12-28T10:16:18.470Z,2.40
2022-12-28T10:18:47.945Z,2.83
2022-12-28T10:21:16.855Z,3.08
2022-12-28T10:24:12.464Z,3.70
2022-12-28T10:26:37.787Z,3.05
2022-12-28T10:29:06.305Z,3.25
2022-12-28T10:31:36.538Z,2.88
2022-12-28T10:34:15.921Z,2.03
2022-12-28T10:36:46.244Z,2.63
2022-12-28T10:39:19.141Z,2.00
2022-12-28T10:41:47.973Z,2.40
2022-12-28T10:44:40.359Z,3.35
2022-12-28T10:47:19.376Z,2.72
2022-12-28T10:50:10.407Z,3.15
2022-12-28T10:52:40.403Z,2.10
2022-12-28T10:55:28.277Z,2.45
2022-12-28T10:58:28.668Z,2.47
2022-12-28T11:00:55.728Z,2.08
2022-12-28T11:03:27.247Z,4.63
2022-12-28T11:06:15.023Z,2.72
2022-12-28T11:08:45.507Z,2.15
2022-12-28T11:11:25.182Z,1.73
2022-12-28T11:13:57.048Z,1.67
2022-12-28T11:16:25.632Z,2.50
2022-12-28T11:18:54.230Z,4.22
2022-12-28T11:21:23.392Z,2.55
2022-12-28T11:23:53.438Z,2.60
2022-12-28T11:26:23.987Z,3.28
2022-12-28T11:28:53.868Z,2.88
2022-12-28T11:31:29.792Z,2.22
2022-12-28T11:34:03.453Z,2.17
2022-12-28T11:36:34.165Z,1.95
2022-12-28T11:39:33.291Z,1.83
2022-12-28T11:42:37.056Z,2.92
2022-12-28T11:44:53.970Z,2.30
2022-12-28T11:47:33.276Z,2.65
2022-12-28T11:50:42.251Z,1.95
2022-12-28T11:53:50.517Z,1.95
2022-12-28T11:56:19.626Z,1.70
2022-12-28T11:59:06.618Z,1.73
2022-12-28T12:01:45.782Z,2.22
2022-12-28T12:04:36.196Z,1.48
2022-12-28T12:07:48.352Z,1.83
2022-12-28T12:10:30.188Z,2.28
2022-12-28T12:12:59.525Z,2.95
2022-12-28T12:15:35.542Z,1.83
2022-12-28T12:18:06.510Z,1.63
2022-12-28T12:20:58.529Z,2.15
2022-12-28T12:23:32.831Z,2.80
2022-12-28T12:26:11.240Z,1.92
2022-12-28T12:28:44.653Z,2.42
2022-12-28T12:31:27.123Z,2.13
2022-12-28T12:34:01.254Z,1.63
2022-12-28T12:37:07.241Z,2.47
2022-12-28T12:39:48.821Z,1.77
2022-12-28T12:44:57.856Z,2.10
2022-12-28T12:48:07.852Z,1.77
2022-12-28T12:50:54.316Z,2.00
2022-12-28T12:53:48.420Z,1.90
2022-12-28T12:56:31.723Z,2.35
2022-12-28T12:59:16.528Z,1.95
2022-12-28T13:01:56.165Z,2.22
2022-12-28T13:04:28.572Z,2.08
2022-12-28T13:07:02.999Z,3.08
2022-12-28T13:09:34.189Z,1.73
2022-12-28T13:12:03.328Z,2.35
2022-12-28T13:14:31.775Z,1.98
2022-12-28T13:17:01.989Z,2.22
2022-12-28T13:19:31.131Z,1.67
2022-12-28T13:22:00.946Z,1.77
2022-12-28T13:24:30.580Z,1.88
2022-12-28T13:27:00.691Z,1.42
2022-12-28T13:29:34.541Z,1.83
2022-12-28T13:32:03.030Z,1.90
2022-12-28T13:34:35.111Z,1.73
2022-12-28T13:37:17.334Z,2.25
2022-12-28T13:39:48.002Z,2.95
2022-12-28T13:42:19.447Z,3.42
2022-12-28T13:44:51.665Z,1.80
2022-12-28T13:47:27.096Z,2.33
2022-12-28T13:49:59.781Z,2.10
2022-12-28T13:52:35.609Z,1.38
2022-12-28T13:55:09.059Z,3.83
2022-12-28T13:57:51.340Z,2.00
2022-12-28T14:00:24.353Z,1.83
2022-12-28T14:02:55.188Z,1.80
2022-12-28T14:05:26.406Z,1.80
2022-12-28T14:07:58.914Z,2.10
2022-12-28T14:10:28.765Z,2.20
2022-12-28T14:12:58.391Z,2.75
2022-12-28T14:15:27.218Z,2.67
2022-12-28T14:17:56.182Z,2.00
2022-12-28T14:20:24.631Z,2.35
2022-12-28T14:22:52.874Z,1.67
2022-12-28T14:25:23.796Z,3.15
2022-12-28T14:27:58.038Z,2.75
2022-12-28T14:30:28.719Z,3.67
2022-12-28T14:32:58.920Z,2.80
2022-12-28T14:35:30.479Z,2.25
2022-12-28T14:40:33.221Z,2.90
2022-12-28T14:43:11.220Z,4.32
2022-12-28T14:46:05.827Z,6.95
2022-12-28T14:48:36.672Z,6.43
2022-12-28T14:51:07.473Z,4.15
2022-12-28T14:53:35.920Z,4.30
2022-12-28T14:56:08.668Z,5.57
2022-12-28T14:58:51.080Z,4.35
2022-12-28T15:01:21.388Z,6.80
2022-12-28T15:03:52.516Z,5.55
2022-12-28T15:06:21.494Z,4.57
2022-12-28T15:08:51.770Z,4.20
2022-12-28T15:11:23.685Z,3.17
2022-12-28T15:13:52.535Z,4.05
2022-12-28T15:16:23.955Z,4.03
2022-12-28T15:18:53.265Z,7.07
2022-12-28T15:21:23.885Z,6.68
2022-12-28T15:23:53.437Z,6.07
2022-12-28T15:26:24.938Z,3.58
2022-12-28T15:28:53.302Z,6.80
2022-12-28T15:31:23.280Z,2.15
2022-12-28T15:33:52.479Z,4.88
2022-12-28T15:36:22.426Z,2.97
2022-12-28T15:38:51.023Z,3.45
2022-12-28T15:41:37.607Z,3.10
2022-12-28T15:44:07.800Z,4.32
2022-12-28T15:46:36.658Z,5.72
2022-12-28T15:49:06.848Z,2.83
2022-12-28T15:51:35.453Z,5.05
2022-12-28T15:54:04.298Z,4.82
2022-12-28T15:56:34.865Z,2.88
2022-12-28T15:59:05.710Z,7.47
2022-12-28T16:02:29.941Z,3.03
2022-12-28T16:05:01.875Z,2.88
2022-12-28T16:10:00.501Z,2.38
2022-12-28T16:12:29.955Z,5.28
2022-12-28T16:14:58.456Z,5.10
2022-12-28T16:17:27.095Z,2.45
2022-12-28T16:19:56.831Z,3.85
2022-12-28T16:22:26.919Z,4.35
2022-12-28T16:24:55.566Z,5.72
2022-12-28T16:27:23.908Z,5.18
2022-12-28T16:29:58.456Z,6.47
2022-12-28T16:32:28.247Z,4.25
2022-12-28T16:34:58.321Z,4.40
2022-12-28T16:37:28.885Z,6.63
2022-12-28T16:39:57.766Z,2.70
2022-12-28T16:42:26.275Z,3.75
2022-12-28T16:44:55.087Z,5.35
2022-12-28T16:47:23.648Z,4.63
2022-12-28T16:49:52.114Z,7.43
2022-12-28T16:52:20.458Z,4.85
2022-12-28T16:54:50.867Z,5.40
2022-12-28T16:57:19.193Z,3.33
2022-12-28T16:59:47.545Z,4.32
2022-12-28T17:02:16.081Z,3.60
2022-12-28T17:04:44.996Z,4.95
2022-12-28T17:07:14.294Z,5.93
2022-12-28T17:09:50.007Z,5.40
2022-12-28T17:12:21.132Z,4.13
2022-12-28T17:14:49.455Z,3.60
2022-12-28T17:17:18.043Z,3.75
2022-12-28T17:19:46.483Z,4.75
2022-12-28T17:22:16.098Z,3.72
2022-12-28T17:24:44.879Z,2.92
2022-12-28T17:27:18.931Z,3.42
2022-12-28T17:29:49.065Z,3.45
2022-12-28T17:32:17.509Z,3.60
2022-12-28T17:34:46.431Z,3.03
2022-12-28T17:37:15.326Z,3.20
2022-12-28T17:39:45.293Z,2.88
2022-12-28T17:42:13.484Z,5.00
2022-12-28T17:44:41.894Z,2.80
2022-12-28T17:47:11.773Z,4.75
2022-12-28T17:49:40.115Z,5.25
2022-12-28T17:52:08.448Z,5.68
2022-12-28T17:54:37.051Z,3.22
2022-12-28T17:57:05.604Z,5.38
2022-12-28T17:59:33.948Z,2.97
2022-12-28T18:02:05.199Z,4.97
2022-12-28T18:04:37.225Z,7.38
2022-12-28T18:07:05.746Z,3.42
2022-12-28T18:09:34.782Z,4.70
2022-12-28T18:12:03.164Z,4.03
2022-12-28T18:14:31.803Z,4.40
2022-12-28T18:17:00.412Z,3.65
2022-12-28T18:19:28.852Z,3.83
2022-12-28T18:21:58.823Z,4.13
2022-12-28T18:24:27.099Z,4.45
2022-12-28T18:26:56.671Z,5.72
2022-12-28T18:29:25.121Z,6.20
2022-12-28T18:31:53.798Z,8.05
2022-12-28T18:34:22.039Z,9.93
2022-12-28T18:36:50.491Z,10.32
2022-12-28T18:39:20.357Z,5.32
2022-12-28T18:41:48.705Z,6.50
2022-12-28T18:44:17.597Z,8.25
2022-12-28T18:46:46.069Z,5.22
2022-12-28T18:49:14.457Z,4.93
2022-12-28T18:51:42.946Z,4.70
2022-12-28T18:54:11.385Z,6.38
2022-12-28T18:56:41.670Z,6.40
2022-12-28T18:59:10.586Z,6.50
2022-12-28T19:02:06.044Z,9.27
2022-12-28T19:04:30.339Z,5.75
2022-12-28T19:06:59.048Z,9.32
2022-12-28T19:09:27.909Z,4.93
2022-12-28T19:11:59.288Z,5.45
2022-12-28T19:14:27.631Z,6.47
2022-12-28T19:16:56.653Z,5.53
2022-12-28T19:19:24.838Z,9.23
2022-12-28T19:21:58.506Z,8.18
2022-12-28T19:24:27.504Z,5.93
2022-12-28T19:26:58.407Z,5.60
2022-12-28T19:29:26.953Z,6.35
2022-12-28T19:31:56.119Z,8.60
2022-12-28T19:34:24.482Z,5.20
2022-12-28T19:36:53.093Z,7.07
2022-12-28T19:39:21.385Z,10.13
2022-12-28T19:41:49.716Z,8.38
2022-12-28T19:44:21.048Z,6.28
2022-12-28T19:46:50.166Z,8.23
2022-12-28T19:49:18.805Z,4.53
2022-12-28T19:51:47.112Z,6.72
2022-12-28T19:54:15.432Z,6.90
2022-12-28T19:56:44.668Z,5.60
2022-12-28T19:59:13.168Z,4.68
2022-12-28T20:01:43.844Z,6.72
2022-12-28T20:04:14.217Z,6.00
2022-12-28T20:06:43.786Z,6.82
2022-12-28T20:09:13.250Z,9.88
2022-12-28T20:11:42.034Z,6.80
2022-12-28T20:14:14.094Z,11.48
2022-12-28T20:16:44.579Z,6.45
2022-12-28T20:19:14.187Z,6.15
2022-12-28T20:21:43.334Z,4.50
2022-12-28T20:24:13.314Z,6.25
2022-12-28T20:26:42.452Z,6.55
2022-12-28T20:29:11.326Z,4.70
2022-12-28T20:31:39.631Z,5.03
2022-12-28T20:34:10.317Z,5.90
2022-12-28T20:36:38.740Z,5.55
2022-12-28T20:39:06.944Z,6.05
2022-12-28T20:41:53.116Z,7.78
2022-12-28T20:44:26.187Z,3.58
2022-12-28T20:46:55.457Z,5.63
2022-12-28T20:49:26.614Z,4.22
2022-12-28T20:51:56.112Z,4.10
2022-12-28T20:54:25.202Z,2.75
2022-12-28T20:56:56.156Z,6.35
2022-12-28T20:59:26.208Z,5.05
2022-12-28T21:01:55.559Z,6.43
2022-12-28T21:04:26.142Z,5.65
2022-12-28T21:06:55.367Z,2.35
2022-12-28T21:09:24.371Z,4.28
2022-12-28T21:11:53.727Z,5.28
2022-12-28T21:14:22.536Z,2.97
2022-12-28T21:16:51.020Z,4.22
2022-12-28T21:19:19.989Z,3.70
2022-12-28T21:21:50.454Z,5.07
2022-12-28T21:24:18.893Z,4.57
2022-12-28T21:26:47.349Z,4.00
2022-12-28T21:29:22.032Z,4.13
2022-12-28T21:31:54.360Z,4.32
2022-12-28T21:34:22.901Z,5.25
2022-12-28T21:36:54.570Z,5.80
2022-12-28T21:39:23.145Z,3.88
2022-12-28T21:41:51.944Z,3.33
2022-12-28T21:44:22.876Z,3.97
2022-12-28T21:46:52.898Z,5.97
2022-12-28T21:49:22.323Z,3.53
2022-12-28T21:51:52.551Z,4.75
2022-12-28T21:54:22.678Z,3.88
2022-12-28T21:56:54.159Z,3.72
2022-12-28T21:59:23.859Z,4.40
2022-12-28T22:02:10.826Z,3.97
2022-12-28T22:05:02.595Z,3.55
2022-12-28T22:10:18.177Z,3.85
2022-12-28T22:12:46.787Z,4.13
2022-12-28T22:15:35.105Z,2.90
2022-12-28T22:18:06.346Z,3.72
2022-12-28T22:20:37.256Z,2.90
2022-12-28T22:23:07.659Z,2.22
2022-12-28T22:25:37.153Z,3.50
2022-12-28T22:28:06.411Z,2.55
2022-12-28T22:30:36.121Z,2.63
2022-12-28T22:33:04.891Z,3.05
2022-12-28T22:35:33.916Z,4.00
2022-12-28T22:38:02.488Z,2.67
2022-12-28T22:40:32.472Z,2.40
2022-12-28T22:43:00.810Z,1.55
2022-12-28T22:45:29.218Z,2.63
2022-12-28T22:47:59.917Z,2.88
2022-12-28T22:50:29.491Z,2.40
2022-12-28T22:52:58.355Z,2.58
2022-12-28T22:55:28.289Z,2.63
2022-12-28T22:57:58.679Z,3.03
2022-12-28T23:00:27.098Z,3.25
2022-12-28T23:02:55.463Z,2.70
2022-12-28T23:05:23.807Z,2.08
2022-12-28T23:07:52.049Z,3.17
2022-12-28T23:10:20.358Z,2.15
2022-12-28T23:12:48.586Z,3.00
2022-12-28T23:15:20.086Z,2.03
2022-12-28T23:17:49.612Z,3.75
2022-12-28T23:20:36.227Z,2.78
2022-12-28T23:23:22.094Z,1.63
2022-12-28T23:26:08.170Z,3.55
2022-12-28T23:28:37.110Z,1.92
2022-12-28T23:31:07.824Z,2.15
2022-12-28T23:33:36.915Z,1.87
2022-12-28T23:36:07.426Z,1.63
2022-12-28T23:38:35.743Z,0.88
2022-12-28T23:41:21.141Z,1.60
2022-12-28T23:43:49.339Z,1.80
2022-12-28T23:46:19.765Z,1.42
2022-12-28T23:48:48.443Z,1.02
2022-12-28T23:51:18.062Z,1.58
2022-12-28T23:53:46.615Z,1.98
2022-12-28T23:56:15.156Z,2.33
2022-12-28T23:58:43.653Z,1.25
